createdAt,value
2022-08-16T00:13:41.521Z,0
2022-08-16T00:23:17.957Z,0
2022-08-16T00:42:32.369Z,0
2022-08-16T00:52:29.817Z,0
2022-08-16T01:01:45.994Z,0
2022-08-16T01:11:23.027Z,0
2022-08-16T01:20:59.978Z,0
2022-08-16T01:30:39.949Z,0
2022-08-16T01:40:16.606Z,0
2022-08-16T01:59:29.924Z,0
2022-08-16T02:09:11.792Z,0
2022-08-16T02:18:44.144Z,0
2022-08-16T02:28:23.498Z,0
2022-08-16T02:38:01.547Z,0
2022-08-16T02:57:12.447Z,0
2022-08-16T03:06:50.431Z,0
2022-08-16T03:16:32.729Z,0
2022-08-16T03:26:03.718Z,0
2022-08-16T03:45:17.287Z,8.33
2022-08-16T03:54:58.350Z,31.67
2022-08-16T04:04:32.909Z,81.67
2022-08-16T04:14:08.840Z,160
2022-08-16T04:23:45.258Z,251.67
2022-08-16T04:33:26.961Z,357.5
2022-08-16T04:42:59.675Z,443.33
2022-08-16T04:52:37.180Z,522.5
2022-08-16T05:02:41.264Z,592.5
2022-08-16T05:11:52.898Z,660
2022-08-16T05:31:08.436Z,775
2022-08-16T05:40:57.372Z,745.83
2022-08-16T05:50:28.164Z,810
2022-08-16T06:00:02.616Z,864.17
2022-08-16T06:09:43.147Z,1059.17
2022-08-16T06:19:16.329Z,1122.5
2022-08-16T06:28:55.092Z,1663.33
2022-08-16T06:38:34.433Z,1390
2022-08-16T06:48:10.786Z,1116.67
2022-08-16T06:57:48.351Z,1129.17
2022-08-16T07:07:26.055Z,1161.67
2022-08-16T07:17:08.099Z,1160
2022-08-16T07:26:42.206Z,1243.33
2022-08-16T07:36:21.820Z,1266.67
2022-08-16T07:45:58.479Z,1430.83
2022-08-16T07:55:39.057Z,1458.33
2022-08-16T08:05:15.324Z,1505
2022-08-16T08:14:53.496Z,1681.67
2022-08-16T08:24:32.586Z,1777.5
2022-08-16T08:34:12.677Z,2130
2022-08-16T08:43:50.191Z,2505
2022-08-16T08:53:30.519Z,2846.67
2022-08-16T09:03:09.095Z,3191.67
2022-08-16T09:32:02.428Z,2391.67
2022-08-16T09:41:40.440Z,2254.17
2022-08-16T09:51:18.932Z,2775
2022-08-16T10:01:00.909Z,2751.67
2022-08-16T10:10:35.748Z,3320
2022-08-16T10:20:18.523Z,4120.83
2022-08-16T10:29:59.101Z,3448.33
2022-08-16T10:39:33.004Z,4200
2022-08-16T10:49:16.576Z,15931.67
2022-08-16T11:08:36.008Z,6817.5
2022-08-16T11:18:49.094Z,29530
2022-08-16T11:27:48.142Z,3739.17
2022-08-16T11:37:27.404Z,7573.33
2022-08-16T11:47:10.573Z,3766.67
2022-08-16T12:16:09.435Z,10168.33
2022-08-16T12:25:39.206Z,7229.17
2022-08-16T12:35:25.509Z,10346.67
2022-08-16T12:45:03.580Z,7070
2022-08-16T12:54:39.568Z,7925
2022-08-16T13:04:20.430Z,15700.83
2022-08-16T13:14:05.253Z,18210
2022-08-16T13:23:43.462Z,10847.5
2022-08-16T13:33:16.585Z,8594.17
2022-08-16T13:42:47.662Z,9330.83
2022-08-16T13:52:45.187Z,7674.17
2022-08-16T14:02:11.320Z,6230
2022-08-16T14:11:43.592Z,4884.17
2022-08-16T14:21:19.140Z,3966.67
2022-08-16T14:30:55.397Z,3615
2022-08-16T14:40:32.731Z,4244.17
2022-08-16T14:50:12.812Z,4985
2022-08-16T14:59:51.996Z,4990.83
2022-08-16T15:09:31.138Z,4197.5
2022-08-16T15:19:05.316Z,2993.33
2022-08-16T15:28:40.709Z,2911.67
2022-08-16T15:57:37.040Z,5332.5
2022-08-16T16:07:13.385Z,2847.5
2022-08-16T16:16:48.725Z,2982.5
2022-08-16T16:26:24.981Z,1982.5
2022-08-16T17:04:52.372Z,1205
2022-08-16T17:14:32.494Z,1190
2022-08-16T17:33:54.054Z,1110.83
2022-08-16T17:43:21.226Z,878.33
2022-08-16T17:52:57.544Z,622.5
2022-08-16T18:12:09.586Z,267.5
2022-08-16T18:21:46.006Z,146.67
2022-08-16T18:31:22.612Z,72.5
2022-08-16T18:40:58.618Z,28.33
2022-08-16T18:50:58.633Z,8.33
2022-08-16T19:00:12.092Z,1.67
2022-08-16T19:09:48.817Z,0.83
2022-08-16T19:19:25.391Z,0
2022-08-16T19:38:39.112Z,0
2022-08-16T19:48:14.992Z,0
2022-08-16T19:57:52.009Z,0
2022-08-16T20:07:28.522Z,0
2022-08-16T20:26:42.311Z,0
2022-08-16T20:36:19.474Z,0
2022-08-16T20:45:56.735Z,0
2022-08-16T20:55:33.737Z,0
2022-08-16T21:05:10.711Z,0
2022-08-16T21:14:47.759Z,0
2022-08-16T21:24:24.654Z,0
2022-08-16T21:34:01.697Z,0
2022-08-16T21:43:38.814Z,0
2022-08-16T21:53:15.757Z,0
2022-08-16T22:02:53.011Z,0
2022-08-16T22:12:29.688Z,0
2022-08-16T22:31:43.917Z,0
2022-08-16T22:41:22.005Z,0
2022-08-16T22:50:58.134Z,0
2022-08-16T23:00:34.933Z,0
2022-08-16T23:10:12.042Z,0
2022-08-16T23:19:49.236Z,0
2022-08-16T23:29:26.640Z,0
